createdAt,value
2022-11-13T00:00:13.449Z,0
2022-11-13T00:01:10.419Z,0
2022-11-13T00:02:10.800Z,0
2022-11-13T00:03:10.450Z,0
2022-11-13T00:04:10.665Z,0
2022-11-13T00:05:13.155Z,0
2022-11-13T00:06:10.403Z,0
2022-11-13T00:07:10.974Z,0
2022-11-13T00:08:10.436Z,0
2022-11-13T00:09:10.383Z,0
2022-11-13T00:10:10.410Z,0
2022-11-13T00:11:13.480Z,0
2022-11-13T00:12:10.410Z,0
2022-11-13T00:13:10.414Z,0
2022-11-13T00:14:10.386Z,0
2022-11-13T00:15:10.517Z,0
2022-11-13T00:16:13.455Z,0
2022-11-13T00:17:10.401Z,0
2022-11-13T00:18:11.537Z,0
2022-11-13T00:19:10.406Z,0
2022-11-13T00:20:10.517Z,0
2022-11-13T00:21:10.397Z,0
2022-11-13T00:22:13.577Z,0
2022-11-13T00:23:10.548Z,0
2022-11-13T00:24:10.417Z,0
2022-11-13T00:25:10.422Z,0
2022-11-13T00:26:10.472Z,0
2022-11-13T00:27:11.483Z,0
2022-11-13T00:28:10.460Z,0
2022-11-13T00:29:10.428Z,0
2022-11-13T00:30:12.691Z,0
2022-11-13T00:31:10.536Z,0
2022-11-13T00:32:10.413Z,0
2022-11-13T00:33:16.303Z,0
2022-11-13T00:34:59.572Z,0
2022-11-13T00:36:10.542Z,0
2022-11-13T00:37:10.412Z,0
2022-11-13T00:38:13.460Z,0
2022-11-13T00:39:10.442Z,0
2022-11-13T00:40:10.499Z,0
2022-11-13T00:41:10.454Z,0
2022-11-13T00:42:10.518Z,0
2022-11-13T00:43:10.439Z,0
2022-11-13T00:44:13.269Z,0
2022-11-13T00:45:10.505Z,0
2022-11-13T00:46:10.442Z,0
2022-11-13T00:47:10.692Z,0
2022-11-13T00:48:10.337Z,0
2022-11-13T00:49:13.454Z,0
2022-11-13T00:50:10.568Z,0
2022-11-13T00:51:10.436Z,0
2022-11-13T00:52:10.568Z,0
2022-11-13T00:53:13.901Z,0
2022-11-13T00:54:10.720Z,0
2022-11-13T00:55:11.539Z,0
2022-11-13T00:56:10.436Z,0
2022-11-13T00:57:10.448Z,0
2022-11-13T00:58:10.620Z,0
2022-11-13T00:59:10.453Z,0
2022-11-13T01:00:13.563Z,0
2022-11-13T01:01:10.504Z,0
2022-11-13T01:02:10.636Z,0
2022-11-13T01:03:10.621Z,0
2022-11-13T01:04:10.471Z,0
2022-11-13T01:05:10.480Z,0
2022-11-13T01:06:13.588Z,0
2022-11-13T01:07:10.712Z,0
2022-11-13T01:08:10.690Z,0
2022-11-13T01:09:10.468Z,0
2022-11-13T01:10:10.716Z,0
2022-11-13T01:11:13.542Z,0
2022-11-13T01:12:10.494Z,0
2022-11-13T01:13:10.521Z,0
2022-11-13T01:14:10.506Z,0
2022-11-13T01:15:10.472Z,0
2022-11-13T01:16:10.504Z,0
2022-11-13T01:17:10.536Z,0
2022-11-13T01:18:10.544Z,0
2022-11-13T01:19:10.590Z,0
2022-11-13T01:20:10.487Z,0
2022-11-13T01:21:10.483Z,0
2022-11-13T01:22:10.698Z,0
2022-11-13T01:23:10.545Z,0
2022-11-13T01:24:10.674Z,0
2022-11-13T01:25:10.496Z,0
2022-11-13T01:26:10.912Z,0
2022-11-13T01:27:13.285Z,0
2022-11-13T01:28:10.535Z,0
2022-11-13T01:29:10.504Z,0
2022-11-13T01:30:10.549Z,0
2022-11-13T01:31:10.517Z,0
2022-11-13T01:32:10.500Z,0
2022-11-13T01:33:10.535Z,0
2022-11-13T01:34:10.537Z,0
2022-11-13T01:35:10.616Z,0
2022-11-13T01:36:10.530Z,0
2022-11-13T01:37:10.551Z,0
2022-11-13T01:38:13.452Z,0
2022-11-13T01:39:10.509Z,0
2022-11-13T01:40:10.791Z,0
2022-11-13T01:41:10.532Z,0
2022-11-13T01:42:10.808Z,0
2022-11-13T01:43:10.546Z,0
2022-11-13T01:44:10.597Z,0
2022-11-13T01:45:10.518Z,0
2022-11-13T01:46:10.579Z,0
2022-11-13T01:47:10.543Z,0
2022-11-13T01:48:10.771Z,0
2022-11-13T01:49:13.568Z,0
2022-11-13T01:50:10.543Z,0
2022-11-13T01:51:10.652Z,0
2022-11-13T01:52:10.567Z,0
2022-11-13T01:53:10.589Z,0
2022-11-13T01:54:13.422Z,0
2022-11-13T01:55:10.558Z,0
2022-11-13T01:56:10.782Z,0
2022-11-13T01:57:10.589Z,0
2022-11-13T01:58:10.890Z,0
2022-11-13T01:59:13.345Z,0
2022-11-13T02:00:13.424Z,0
2022-11-13T02:01:10.562Z,0
2022-11-13T02:02:10.955Z,0
2022-11-13T02:03:10.593Z,0
2022-11-13T02:04:13.291Z,0
2022-11-13T02:05:13.353Z,0
2022-11-13T02:06:10.563Z,0
2022-11-13T02:07:11.068Z,0
2022-11-13T02:08:10.616Z,0
2022-11-13T02:09:10.568Z,0
2022-11-13T02:10:11.782Z,0
2022-11-13T02:11:10.586Z,0
2022-11-13T02:12:10.692Z,0
2022-11-13T02:13:10.606Z,0
2022-11-13T02:14:10.834Z,0
2022-11-13T02:15:10.577Z,0
2022-11-13T02:16:13.677Z,0
2022-11-13T02:17:10.567Z,0
2022-11-13T02:18:10.675Z,0
2022-11-13T02:19:10.579Z,0
2022-11-13T02:20:10.629Z,0
2022-11-13T02:21:13.469Z,0
2022-11-13T02:22:10.622Z,0
2022-11-13T02:23:10.746Z,0
2022-11-13T02:24:10.773Z,0
2022-11-13T02:25:10.583Z,0
2022-11-13T02:26:10.769Z,0
2022-11-13T02:27:13.526Z,0
2022-11-13T02:28:10.723Z,0
2022-11-13T02:29:10.622Z,0
2022-11-13T02:30:17.523Z,0
2022-11-13T02:31:10.731Z,0
2022-11-13T02:32:13.549Z,0
2022-11-13T02:33:10.613Z,0
2022-11-13T02:34:10.612Z,0
2022-11-13T02:35:10.676Z,0
2022-11-13T02:36:10.632Z,0
2022-11-13T02:37:10.621Z,0
2022-11-13T02:38:11.819Z,0
2022-11-13T02:39:10.726Z,0
2022-11-13T02:40:10.638Z,0
2022-11-13T02:41:10.643Z,0
2022-11-13T02:42:10.864Z,0
2022-11-13T02:43:13.768Z,0
2022-11-13T02:44:10.645Z,0
2022-11-13T02:45:10.706Z,0
2022-11-13T02:46:10.883Z,0
2022-11-13T02:47:10.633Z,0
2022-11-13T02:48:10.663Z,0
2022-11-13T02:49:13.544Z,0
2022-11-13T02:50:10.652Z,0
2022-11-13T02:51:10.662Z,0
2022-11-13T02:52:10.722Z,0
2022-11-13T02:53:10.717Z,0
2022-11-13T02:54:20.113Z,0
2022-11-13T02:55:10.741Z,0
2022-11-13T02:56:10.643Z,0
2022-11-13T02:57:10.655Z,0
2022-11-13T02:58:10.929Z,0
2022-11-13T02:59:10.840Z,0
2022-11-13T03:00:18.670Z,0
2022-11-13T03:01:10.673Z,0
2022-11-13T03:02:11.129Z,0
2022-11-13T03:03:10.672Z,0
2022-11-13T03:04:11.858Z,0
2022-11-13T03:05:26.178Z,0
2022-11-13T03:06:10.660Z,0
2022-11-13T03:07:11.081Z,0
2022-11-13T03:08:10.704Z,0
2022-11-13T03:09:10.736Z,0
2022-11-13T03:10:10.678Z,0
2022-11-13T03:11:13.818Z,0
2022-11-13T03:12:10.660Z,0
2022-11-13T03:13:10.762Z,0
2022-11-13T03:14:10.885Z,0
2022-11-13T03:15:10.838Z,0
2022-11-13T03:16:13.820Z,0
2022-11-13T03:17:13.547Z,0
2022-11-13T03:18:10.820Z,0
2022-11-13T03:19:10.726Z,0
2022-11-13T03:20:10.800Z,0
2022-11-13T03:21:10.816Z,0
2022-11-13T03:22:13.460Z,0
2022-11-13T03:23:10.701Z,0
2022-11-13T03:24:10.670Z,0
2022-11-13T03:25:17.760Z,0
2022-11-13T03:26:10.689Z,0
2022-11-13T03:27:13.657Z,0
2022-11-13T03:28:10.757Z,0
2022-11-13T03:29:10.694Z,0
2022-11-13T03:30:10.853Z,0
2022-11-13T03:31:10.800Z,0
2022-11-13T03:32:10.696Z,0
2022-11-13T03:33:13.968Z,0
2022-11-13T03:34:10.827Z,0
2022-11-13T03:35:10.734Z,0
2022-11-13T03:36:10.700Z,0
2022-11-13T03:37:10.729Z,0
2022-11-13T03:38:13.754Z,0
2022-11-13T03:39:10.711Z,0
2022-11-13T03:40:10.757Z,0
2022-11-13T03:41:10.716Z,0
2022-11-13T03:42:10.841Z,0
2022-11-13T03:43:10.860Z,0
2022-11-13T03:44:10.724Z,0
2022-11-13T03:45:10.721Z,0
2022-11-13T03:46:10.840Z,0
2022-11-13T03:47:10.842Z,0
2022-11-13T03:48:10.758Z,0
2022-11-13T03:49:10.743Z,0
2022-11-13T03:50:10.841Z,0
2022-11-13T03:51:10.735Z,0
2022-11-13T03:52:10.753Z,0
2022-11-13T03:53:10.851Z,0
2022-11-13T03:54:13.580Z,0
2022-11-13T03:55:10.739Z,0
2022-11-13T03:56:10.732Z,0
2022-11-13T03:57:10.722Z,0
2022-11-13T03:58:10.771Z,0
2022-11-13T03:59:10.866Z,0
2022-11-13T04:00:10.753Z,0
2022-11-13T04:01:10.739Z,0
2022-11-13T04:02:11.075Z,0
2022-11-13T04:03:10.918Z,0
2022-11-13T04:04:10.761Z,0
2022-11-13T04:05:16.440Z,0
2022-11-13T04:06:10.928Z,0
2022-11-13T04:07:11.018Z,0
2022-11-13T04:08:10.786Z,0
2022-11-13T04:09:10.763Z,0
2022-11-13T04:10:10.755Z,0
2022-11-13T04:11:10.759Z,0
2022-11-13T04:12:10.762Z,0
2022-11-13T04:13:10.794Z,0
2022-11-13T04:14:10.759Z,0
2022-11-13T04:15:10.904Z,0
2022-11-13T04:16:13.862Z,0
2022-11-13T04:17:10.764Z,0
2022-11-13T04:18:10.924Z,0
2022-11-13T04:19:10.878Z,0
2022-11-13T04:20:10.772Z,0
2022-11-13T04:21:12.119Z,0
2022-11-13T04:22:10.894Z,0
2022-11-13T04:23:10.808Z,0
2022-11-13T04:24:10.788Z,0
2022-11-13T04:25:10.794Z,0
2022-11-13T04:26:13.637Z,0
2022-11-13T04:27:10.777Z,0
2022-11-13T04:28:10.805Z,0
2022-11-13T04:29:10.786Z,0
2022-11-13T04:30:10.781Z,0
2022-11-13T04:31:10.906Z,0
2022-11-13T04:32:13.848Z,0
2022-11-13T04:33:10.812Z,0
2022-11-13T04:34:10.909Z,0
2022-11-13T04:35:10.873Z,0
2022-11-13T04:36:10.799Z,0
2022-11-13T04:37:14.309Z,0
2022-11-13T04:38:10.816Z,0
2022-11-13T04:39:10.805Z,0
2022-11-13T04:40:10.807Z,0
2022-11-13T04:41:10.814Z,0
2022-11-13T04:42:10.803Z,0
2022-11-13T04:43:13.669Z,0
2022-11-13T04:44:10.796Z,0
2022-11-13T04:45:10.836Z,0
2022-11-13T04:46:10.839Z,0
2022-11-13T04:47:10.935Z,0
2022-11-13T04:48:12.478Z,0
2022-11-13T04:49:10.845Z,0
2022-11-13T04:50:10.932Z,0
2022-11-13T04:51:10.958Z,0
2022-11-13T04:52:10.827Z,0
2022-11-13T04:53:11.100Z,0
2022-11-13T04:54:13.671Z,0
2022-11-13T04:55:10.873Z,0
2022-11-13T04:56:10.847Z,0
2022-11-13T04:57:10.838Z,0
2022-11-13T04:58:10.855Z,0
2022-11-13T04:59:13.843Z,0
2022-11-13T05:00:11.133Z,0
2022-11-13T05:01:10.837Z,0
2022-11-13T05:02:11.224Z,0
2022-11-13T05:03:11.002Z,0
2022-11-13T05:04:10.925Z,0
2022-11-13T05:05:17.303Z,0
2022-11-13T05:06:10.848Z,0
2022-11-13T05:07:11.308Z,0
2022-11-13T05:08:10.881Z,0
2022-11-13T05:09:11.101Z,0
2022-11-13T05:10:11.114Z,0
2022-11-13T05:11:10.848Z,0
2022-11-13T05:12:10.859Z,0
2022-11-13T05:13:10.881Z,0
2022-11-13T05:14:12.861Z,0
2022-11-13T05:15:10.861Z,0
2022-11-13T05:16:13.929Z,0
2022-11-13T05:17:10.888Z,0
2022-11-13T05:18:10.889Z,0
2022-11-13T05:19:11.031Z,0
2022-11-13T05:20:10.874Z,0
2022-11-13T05:21:14.159Z,0
2022-11-13T05:22:10.871Z,0
2022-11-13T05:23:11.008Z,0
2022-11-13T05:24:10.873Z,0
2022-11-13T05:25:11.223Z,0
2022-11-13T05:26:10.874Z,0
2022-11-13T05:27:19.300Z,0
2022-11-13T05:28:10.899Z,0
2022-11-13T05:29:10.870Z,0
2022-11-13T05:30:10.932Z,0
2022-11-13T05:31:10.885Z,0
2022-11-13T05:32:13.916Z,0
2022-11-13T05:33:10.893Z,0
2022-11-13T05:34:14.999Z,0
2022-11-13T05:35:11.016Z,0
2022-11-13T05:36:10.927Z,0
2022-11-13T05:37:11.018Z,0
2022-11-13T05:38:14.066Z,0
2022-11-13T05:39:11.017Z,0
2022-11-13T05:40:10.935Z,0
2022-11-13T05:41:12.163Z,0
2022-11-13T05:42:10.908Z,0
2022-11-13T05:43:14.192Z,0
2022-11-13T05:44:10.894Z,0
2022-11-13T05:45:10.903Z,0
2022-11-13T05:46:10.904Z,0
2022-11-13T05:47:10.969Z,0
2022-11-13T05:48:10.930Z,0
2022-11-13T05:49:13.751Z,0
2022-11-13T05:50:10.920Z,0
2022-11-13T05:51:11.044Z,0
2022-11-13T05:52:10.938Z,0
2022-11-13T05:53:11.095Z,0
2022-11-13T05:54:13.973Z,0
2022-11-13T05:55:10.927Z,0
2022-11-13T05:56:10.929Z,0
2022-11-13T05:57:11.167Z,0
2022-11-13T05:58:10.956Z,0
2022-11-13T05:59:10.938Z,0
2022-11-13T06:00:13.939Z,0
2022-11-13T06:01:10.924Z,0
2022-11-13T06:02:11.369Z,0
2022-11-13T06:03:10.976Z,0
2022-11-13T06:04:10.921Z,0
2022-11-13T06:05:13.780Z,0
2022-11-13T06:06:10.932Z,0
2022-11-13T06:07:11.520Z,0
2022-11-13T06:08:10.948Z,0
2022-11-13T06:09:11.082Z,0
2022-11-13T06:10:11.057Z,0
2022-11-13T06:11:10.943Z,0
2022-11-13T06:12:10.985Z,0
2022-11-13T06:13:11.222Z,0
2022-11-13T06:14:10.952Z,0
2022-11-13T06:15:10.976Z,0
2022-11-13T06:16:10.935Z,0
2022-11-13T06:17:10.941Z,0
2022-11-13T06:18:11.287Z,0
2022-11-13T06:19:11.022Z,0
2022-11-13T06:20:11.048Z,0
2022-11-13T06:21:13.728Z,0
2022-11-13T06:22:10.964Z,0
2022-11-13T06:23:11.089Z,0
2022-11-13T06:24:10.955Z,0
2022-11-13T06:25:11.088Z,0
2022-11-13T06:26:11.072Z,0
2022-11-13T06:27:10.964Z,0
2022-11-13T06:28:10.984Z,0
2022-11-13T06:29:11.258Z,0
2022-11-13T06:30:11.096Z,0
2022-11-13T06:31:11.056Z,0
2022-11-13T06:32:14.087Z,0
2022-11-13T06:33:11.002Z,0
2022-11-13T06:34:10.972Z,0
2022-11-13T06:35:11.013Z,0
2022-11-13T06:36:11.135Z,0
2022-11-13T06:37:11.165Z,0
2022-11-13T06:38:10.999Z,0
2022-11-13T06:39:11.596Z,0
2022-11-13T06:40:10.991Z,0
2022-11-13T06:41:11.098Z,0
2022-11-13T06:42:11.148Z,0
2022-11-13T06:43:14.006Z,0
2022-11-13T06:44:12.534Z,0
2022-11-13T06:45:11.250Z,0
2022-11-13T06:46:11.049Z,0
2022-11-13T06:47:11.070Z,0
2022-11-13T06:48:13.786Z,0
2022-11-13T06:49:11.007Z,0
2022-11-13T06:50:11.009Z,0
2022-11-13T06:51:11.016Z,0
2022-11-13T06:52:10.998Z,0
2022-11-13T06:53:14.127Z,0
2022-11-13T06:54:13.944Z,0
2022-11-13T06:55:11.126Z,0
2022-11-13T06:56:11.013Z,0
2022-11-13T06:57:11.131Z,0
2022-11-13T06:58:11.437Z,0
2022-11-13T06:59:16.952Z,0
2022-11-13T07:00:11.017Z,0
2022-11-13T07:01:11.615Z,0
2022-11-13T07:02:11.028Z,0
2022-11-13T07:03:11.016Z,0
2022-11-13T07:04:12.535Z,0
2022-11-13T07:05:11.034Z,0
2022-11-13T07:06:11.028Z,0
2022-11-13T07:07:11.337Z,0
2022-11-13T07:08:11.022Z,0
2022-11-13T07:09:11.050Z,0
2022-11-13T07:10:14.108Z,0
2022-11-13T07:11:11.156Z,0
2022-11-13T07:12:14.114Z,0
2022-11-13T07:13:11.157Z,0
2022-11-13T07:14:11.189Z,0
2022-11-13T07:15:13.983Z,0
2022-11-13T07:16:31.253Z,0
2022-11-13T07:17:18.887Z,0
2022-11-13T07:18:11.049Z,0
2022-11-13T07:19:11.375Z,5
2022-11-13T07:20:11.092Z,5
2022-11-13T07:21:14.129Z,5
2022-11-13T07:22:11.044Z,10
2022-11-13T07:23:11.054Z,10
2022-11-13T07:24:17.788Z,15
2022-11-13T07:25:11.059Z,20
2022-11-13T07:26:14.245Z,20
2022-11-13T07:27:11.070Z,20
2022-11-13T07:28:11.078Z,20
2022-11-13T07:29:11.226Z,40
2022-11-13T07:30:13.235Z,30
2022-11-13T07:31:11.061Z,35
2022-11-13T07:32:14.317Z,25
2022-11-13T07:33:11.088Z,25
2022-11-13T07:34:11.129Z,20
2022-11-13T07:35:11.066Z,25
2022-11-13T07:36:11.083Z,45
2022-11-13T07:37:14.089Z,65
2022-11-13T07:38:11.079Z,80
2022-11-13T07:39:11.086Z,90
2022-11-13T07:40:11.086Z,150
2022-11-13T07:41:11.162Z,155
2022-11-13T07:42:11.196Z,140
2022-11-13T07:43:14.217Z,150
2022-11-13T07:44:55.824Z,150
2022-11-13T07:45:11.138Z,155
2022-11-13T07:46:11.214Z,155
2022-11-13T07:47:11.169Z,130
2022-11-13T07:48:14.021Z,115
2022-11-13T07:49:11.096Z,120
2022-11-13T07:50:17.974Z,115
2022-11-13T07:51:11.102Z,115
2022-11-13T07:52:12.232Z,105
2022-11-13T07:53:11.101Z,85
2022-11-13T07:54:14.757Z,65
2022-11-13T07:55:11.137Z,45
2022-11-13T07:56:11.160Z,40
2022-11-13T07:57:14.298Z,35
2022-11-13T07:58:11.117Z,25
2022-11-13T07:59:12.190Z,20
2022-11-13T08:00:11.442Z,25
2022-11-13T08:01:11.509Z,25
2022-11-13T08:02:11.240Z,25
2022-11-13T08:03:11.325Z,20
2022-11-13T08:04:11.383Z,25
2022-11-13T08:05:14.212Z,20
2022-11-13T08:06:11.142Z,25
2022-11-13T08:07:11.616Z,20
2022-11-13T08:08:11.213Z,20
2022-11-13T08:09:11.126Z,15
2022-11-13T08:10:14.040Z,20
2022-11-13T08:11:11.129Z,20
2022-11-13T08:12:11.134Z,20
2022-11-13T08:13:11.292Z,20
2022-11-13T08:14:12.225Z,20
2022-11-13T08:15:18.109Z,20
2022-11-13T08:16:14.152Z,20
2022-11-13T08:17:11.146Z,20
2022-11-13T08:18:11.271Z,20
2022-11-13T08:19:11.155Z,20
2022-11-13T08:20:11.434Z,15
2022-11-13T08:21:20.292Z,20
2022-11-13T08:22:11.144Z,20
2022-11-13T08:23:11.136Z,20
2022-11-13T08:24:11.163Z,20
2022-11-13T08:25:11.183Z,20
2022-11-13T08:26:11.174Z,15
2022-11-13T08:27:12.272Z,20
2022-11-13T08:28:18.084Z,20
2022-11-13T08:29:11.297Z,20
2022-11-13T08:30:11.170Z,25
2022-11-13T08:31:11.286Z,20
2022-11-13T08:32:14.029Z,20
2022-11-13T08:33:11.154Z,20
2022-11-13T08:34:11.281Z,20
2022-11-13T08:35:13.702Z,20
2022-11-13T08:36:11.432Z,20
2022-11-13T08:37:11.189Z,20
2022-11-13T08:38:11.172Z,20
2022-11-13T08:39:11.165Z,20
2022-11-13T08:40:11.182Z,20
2022-11-13T08:41:28.857Z,20
2022-11-13T08:42:11.172Z,20
2022-11-13T08:43:11.161Z,20
2022-11-13T08:44:11.167Z,20
2022-11-13T08:45:11.321Z,20
2022-11-13T08:46:11.211Z,20
2022-11-13T08:47:11.505Z,25
2022-11-13T08:48:11.196Z,20
2022-11-13T08:49:11.223Z,20
2022-11-13T08:50:11.342Z,20
2022-11-13T08:51:11.184Z,20
2022-11-13T08:52:11.460Z,25
2022-11-13T08:53:11.183Z,20
2022-11-13T08:54:11.202Z,20
2022-11-13T08:55:11.239Z,20
2022-11-13T08:56:11.225Z,15
2022-11-13T08:57:15.160Z,15
2022-11-13T08:58:11.204Z,15
2022-11-13T08:59:14.303Z,15
2022-11-13T09:00:11.237Z,15
2022-11-13T09:01:11.389Z,15
2022-11-13T09:02:11.217Z,15
2022-11-13T09:03:11.403Z,15
2022-11-13T09:04:11.625Z,15
2022-11-13T09:05:11.253Z,15
2022-11-13T09:06:11.324Z,15
2022-11-13T09:07:11.670Z,15
2022-11-13T09:08:11.466Z,15
2022-11-13T09:09:11.210Z,15
2022-11-13T09:10:14.321Z,15
2022-11-13T09:11:11.314Z,15
2022-11-13T09:12:11.237Z,15
2022-11-13T09:13:11.231Z,15
2022-11-13T09:14:11.382Z,10
2022-11-13T09:15:14.109Z,15
2022-11-13T09:16:11.223Z,10
2022-11-13T09:17:11.352Z,10
2022-11-13T09:18:11.223Z,10
2022-11-13T09:19:11.353Z,10
2022-11-13T09:20:25.364Z,10
2022-11-13T09:21:14.401Z,10
2022-11-13T09:22:11.506Z,10
2022-11-13T09:23:11.251Z,10
2022-11-13T09:24:11.527Z,10
2022-11-13T09:25:11.262Z,10
2022-11-13T09:26:14.355Z,10
2022-11-13T09:27:11.582Z,10
2022-11-13T09:28:11.352Z,10
2022-11-13T09:29:11.247Z,10
2022-11-13T09:30:11.324Z,10
2022-11-13T09:31:14.358Z,10
2022-11-13T09:32:14.268Z,10
2022-11-13T09:33:11.401Z,10
2022-11-13T09:34:11.262Z,10
2022-11-13T09:35:11.419Z,10
2022-11-13T09:36:11.271Z,10
2022-11-13T09:37:14.088Z,10
2022-11-13T09:38:23.577Z,10
2022-11-13T09:39:11.270Z,10
2022-11-13T09:40:11.443Z,10
2022-11-13T09:41:11.286Z,10
2022-11-13T09:42:12.506Z,10
2022-11-13T09:43:11.252Z,10
2022-11-13T09:44:11.290Z,10
2022-11-13T09:45:11.347Z,10
2022-11-13T09:46:11.278Z,10
2022-11-13T09:47:11.305Z,10
2022-11-13T09:48:14.174Z,10
2022-11-13T09:49:11.401Z,10
2022-11-13T09:50:11.301Z,10
2022-11-13T09:51:11.431Z,10
2022-11-13T09:52:15.644Z,10
2022-11-13T09:53:14.435Z,10
2022-11-13T09:54:11.543Z,10
2022-11-13T09:55:11.323Z,10
2022-11-13T09:56:11.576Z,10
2022-11-13T09:57:11.278Z,10
2022-11-13T09:58:11.295Z,10
2022-11-13T09:59:14.133Z,10
2022-11-13T10:00:11.331Z,10
2022-11-13T10:01:11.735Z,10
2022-11-13T10:02:11.359Z,10
2022-11-13T10:03:11.302Z,10
2022-11-13T10:04:20.041Z,15
2022-11-13T10:05:11.148Z,10
2022-11-13T10:06:11.379Z,10
2022-11-13T10:07:11.893Z,10
2022-11-13T10:08:14.271Z,10
2022-11-13T10:09:11.305Z,10
2022-11-13T10:10:12.607Z,10
2022-11-13T10:11:11.296Z,10
2022-11-13T10:12:11.592Z,10
2022-11-13T10:13:11.332Z,10
2022-11-13T10:14:11.313Z,10
2022-11-13T10:15:14.620Z,15
2022-11-13T10:16:11.323Z,10
2022-11-13T10:17:11.409Z,10
2022-11-13T10:18:11.317Z,10
2022-11-13T10:19:11.323Z,10
2022-11-13T10:20:11.503Z,15
2022-11-13T10:21:20.431Z,10
2022-11-13T10:22:41.785Z,10
2022-11-13T10:23:11.343Z,15
2022-11-13T10:24:17.742Z,15
2022-11-13T10:25:11.341Z,15
2022-11-13T10:26:14.225Z,15
2022-11-13T10:27:11.391Z,15
2022-11-13T10:28:56.592Z,15
2022-11-13T10:29:11.799Z,15
2022-11-13T10:30:11.420Z,15
2022-11-13T10:31:11.349Z,15
2022-11-13T10:32:14.128Z,15
2022-11-13T10:33:11.321Z,15
2022-11-13T10:34:11.334Z,15
2022-11-13T10:35:11.365Z,15
2022-11-13T10:36:11.461Z,15
2022-11-13T10:37:14.174Z,15
2022-11-13T10:38:20.300Z,15
2022-11-13T10:39:11.334Z,15
2022-11-13T10:40:11.399Z,10
2022-11-13T10:41:11.352Z,15
2022-11-13T10:42:11.630Z,15
2022-11-13T10:43:14.424Z,10
2022-11-13T10:44:11.647Z,10
2022-11-13T10:45:17.833Z,15
2022-11-13T10:46:11.558Z,10
2022-11-13T10:47:11.389Z,10
2022-11-13T10:48:14.404Z,10
2022-11-13T10:49:11.366Z,10
2022-11-13T10:50:11.443Z,10
2022-11-13T10:51:11.414Z,10
2022-11-13T10:52:17.789Z,10
2022-11-13T10:53:11.380Z,10
2022-11-13T10:54:14.502Z,10
2022-11-13T10:55:11.384Z,10
2022-11-13T10:56:12.357Z,10
2022-11-13T10:57:11.362Z,10
2022-11-13T10:58:11.542Z,10
2022-11-13T10:59:15.330Z,10
2022-11-13T11:00:11.638Z,10
2022-11-13T11:01:11.810Z,10
2022-11-13T11:02:11.508Z,10
2022-11-13T11:03:11.425Z,10
2022-11-13T11:04:11.402Z,10
2022-11-13T11:05:11.477Z,10
2022-11-13T11:06:11.373Z,10
2022-11-13T11:07:29.887Z,10
2022-11-13T11:08:11.956Z,10
2022-11-13T11:09:11.425Z,10
2022-11-13T11:10:11.439Z,10
2022-11-13T11:11:11.381Z,10
2022-11-13T11:12:11.396Z,10
2022-11-13T11:13:11.371Z,10
2022-11-13T11:14:11.580Z,10
2022-11-13T11:15:11.556Z,10
2022-11-13T11:16:11.494Z,10
2022-11-13T11:17:11.420Z,10
2022-11-13T11:18:11.510Z,10
2022-11-13T11:19:11.894Z,10
2022-11-13T11:20:11.446Z,10
2022-11-13T11:21:11.417Z,10
2022-11-13T11:22:11.433Z,10
2022-11-13T11:23:11.454Z,10
2022-11-13T11:24:11.573Z,10
2022-11-13T11:25:11.464Z,10
2022-11-13T11:26:14.570Z,10
2022-11-13T11:27:11.494Z,10
2022-11-13T11:28:11.437Z,10
2022-11-13T11:29:11.424Z,10
2022-11-13T11:30:11.649Z,10
2022-11-13T11:31:11.597Z,10
2022-11-13T11:32:11.586Z,10
2022-11-13T11:33:11.430Z,10
2022-11-13T11:34:11.431Z,10
2022-11-13T11:35:11.449Z,10
2022-11-13T11:36:11.479Z,10
2022-11-13T11:37:14.184Z,10
2022-11-13T11:38:11.449Z,10
2022-11-13T11:39:11.431Z,10
2022-11-13T11:40:11.593Z,10
2022-11-13T11:41:18.801Z,10
2022-11-13T11:42:15.586Z,10
2022-11-13T11:43:11.430Z,10
2022-11-13T11:44:11.429Z,10
2022-11-13T11:45:11.448Z,10
2022-11-13T11:46:11.657Z,10
2022-11-13T11:47:11.627Z,10
2022-11-13T11:48:14.678Z,10
2022-11-13T11:49:11.458Z,10
2022-11-13T11:50:11.474Z,10
2022-11-13T11:51:11.471Z,10
2022-11-13T11:52:11.561Z,10
2022-11-13T11:53:14.233Z,10
2022-11-13T11:54:14.210Z,10
2022-11-13T11:55:11.495Z,10
2022-11-13T11:56:11.579Z,10
2022-11-13T11:57:11.472Z,10
2022-11-13T11:58:14.329Z,10
2022-11-13T11:59:11.545Z,10
2022-11-13T12:00:11.477Z,10
2022-11-13T12:01:11.484Z,10
2022-11-13T12:02:11.571Z,10
2022-11-13T12:03:11.595Z,10
2022-11-13T12:04:14.369Z,10
2022-11-13T12:05:15.612Z,10
2022-11-13T12:06:11.491Z,10
2022-11-13T12:07:11.871Z,10
2022-11-13T12:08:11.460Z,10
2022-11-13T12:09:12.587Z,10
2022-11-13T12:10:11.334Z,10
2022-11-13T12:11:11.516Z,10
2022-11-13T12:12:11.616Z,10
2022-11-13T12:13:11.505Z,10
2022-11-13T12:14:11.602Z,10
2022-11-13T12:15:15.116Z,10
2022-11-13T12:16:11.484Z,10
2022-11-13T12:17:23.045Z,10
2022-11-13T12:18:11.473Z,10
2022-11-13T12:19:11.628Z,10
2022-11-13T12:20:14.969Z,10
2022-11-13T12:21:11.503Z,10
2022-11-13T12:22:11.682Z,10
2022-11-13T12:23:11.498Z,10
2022-11-13T12:24:11.510Z,10
2022-11-13T12:25:11.491Z,10
2022-11-13T12:26:20.373Z,10
2022-11-13T12:27:11.510Z,10
2022-11-13T12:28:11.633Z,10
2022-11-13T12:29:11.505Z,10
2022-11-13T12:30:11.731Z,10
2022-11-13T12:31:14.687Z,10
2022-11-13T12:32:11.541Z,10
2022-11-13T12:33:11.624Z,10
2022-11-13T12:34:11.557Z,10
2022-11-13T12:35:11.636Z,10
2022-11-13T12:36:11.668Z,10
2022-11-13T12:37:14.410Z,10
2022-11-13T12:38:16.409Z,10
2022-11-13T12:39:11.520Z,10
2022-11-13T12:40:11.582Z,10
2022-11-13T12:41:11.585Z,10
2022-11-13T12:42:14.375Z,10
2022-11-13T12:43:11.523Z,10
2022-11-13T12:44:11.822Z,10
2022-11-13T12:45:11.525Z,10
2022-11-13T12:46:11.900Z,10
2022-11-13T12:47:11.549Z,10
2022-11-13T12:48:15.118Z,10
2022-11-13T12:49:12.494Z,10
2022-11-13T12:50:11.610Z,10
2022-11-13T12:51:11.854Z,10
2022-11-13T12:52:11.665Z,10
2022-11-13T12:53:14.433Z,10
2022-11-13T12:54:11.887Z,10
2022-11-13T12:55:11.999Z,10
2022-11-13T12:56:11.573Z,10
2022-11-13T12:57:11.368Z,10
2022-11-13T12:58:11.542Z,10
2022-11-13T12:59:39.361Z,10
2022-11-13T13:00:11.839Z,10
2022-11-13T13:01:12.175Z,10
2022-11-13T13:02:12.827Z,10
2022-11-13T13:03:11.558Z,10
2022-11-13T13:04:14.867Z,10
2022-11-13T13:05:11.971Z,10
2022-11-13T13:06:11.615Z,10
2022-11-13T13:07:12.354Z,10
2022-11-13T13:08:14.689Z,10
2022-11-13T13:09:11.672Z,10
2022-11-13T13:10:15.560Z,10
2022-11-13T13:11:11.902Z,10
2022-11-13T13:12:11.457Z,10
2022-11-13T13:13:11.767Z,10
2022-11-13T13:14:11.573Z,10
2022-11-13T13:15:14.261Z,10
2022-11-13T13:16:13.304Z,10
2022-11-13T13:17:11.166Z,10
2022-11-13T13:18:11.771Z,10
2022-11-13T13:19:11.591Z,10
2022-11-13T13:20:11.846Z,10
2022-11-13T13:21:14.471Z,10
2022-11-13T13:22:11.601Z,10
2022-11-13T13:23:17.702Z,10
2022-11-13T13:24:11.853Z,10
2022-11-13T13:25:17.968Z,10
2022-11-13T13:26:15.271Z,10
2022-11-13T13:27:11.682Z,10
2022-11-13T13:28:11.624Z,10
2022-11-13T13:29:11.624Z,5
2022-11-13T13:30:11.690Z,5
2022-11-13T13:31:11.644Z,5
2022-11-13T13:32:29.006Z,5
2022-11-13T13:33:15.466Z,5
2022-11-13T13:34:11.628Z,5
2022-11-13T13:35:11.631Z,5
2022-11-13T13:36:11.768Z,5
2022-11-13T13:37:11.912Z,5
2022-11-13T13:38:11.659Z,5
2022-11-13T13:39:12.170Z,5
2022-11-13T13:40:11.626Z,5
2022-11-13T13:41:11.839Z,5
2022-11-13T13:42:11.514Z,5
2022-11-13T13:43:12.184Z,5
2022-11-13T13:44:12.039Z,5
2022-11-13T13:45:12.022Z,5
2022-11-13T13:46:11.679Z,5
2022-11-13T13:47:11.665Z,5
2022-11-13T13:48:11.806Z,5
2022-11-13T13:49:11.777Z,5
2022-11-13T13:50:11.783Z,5
2022-11-13T13:51:11.685Z,5
2022-11-13T13:52:11.847Z,5
2022-11-13T13:53:14.718Z,5
2022-11-13T13:54:11.650Z,5
2022-11-13T13:55:11.866Z,5
2022-11-13T13:56:11.686Z,5
2022-11-13T13:57:11.715Z,5
2022-11-13T13:58:14.836Z,5
2022-11-13T13:59:11.764Z,5
2022-11-13T14:00:11.832Z,5
2022-11-13T14:01:28.294Z,5
2022-11-13T14:02:12.258Z,5
2022-11-13T14:03:11.734Z,5
2022-11-13T14:04:13.195Z,5
2022-11-13T14:05:11.842Z,5
2022-11-13T14:06:13.208Z,5
2022-11-13T14:07:12.114Z,5
2022-11-13T14:08:11.789Z,5
2022-11-13T14:09:14.467Z,5
2022-11-13T14:10:11.757Z,5
2022-11-13T14:11:11.946Z,5
2022-11-13T14:12:18.308Z,5
2022-11-13T14:13:11.675Z,5
2022-11-13T14:14:11.676Z,5
2022-11-13T14:15:14.803Z,5
2022-11-13T14:16:11.693Z,5
2022-11-13T14:17:11.753Z,5
2022-11-13T14:19:11.713Z,5
2022-11-13T14:20:12.924Z,5
2022-11-13T14:21:11.878Z,5
2022-11-13T14:22:11.961Z,5
2022-11-13T14:23:11.792Z,5
2022-11-13T14:24:11.847Z,5
2022-11-13T14:25:15.168Z,5
2022-11-13T14:26:15.217Z,5
2022-11-13T14:27:12.126Z,5
2022-11-13T14:28:11.371Z,5
2022-11-13T14:29:15.358Z,5
2022-11-13T14:30:11.810Z,5
2022-11-13T14:31:14.569Z,5
2022-11-13T14:32:11.686Z,5
2022-11-13T14:33:11.770Z,5
2022-11-13T14:34:11.715Z,5
2022-11-13T14:35:11.781Z,0